Time;durP1;ratioP1;P1;durP2;ratioP2;P2;SDS_P1;SDS_P2;PMS_P1;PMS_P2;Temp;Humidity;BMP_temperature;BMP_pressure;BME280_temperature;BME280_humidity;BME280_pressure;Samples;Min_cycle;Max_cycle;Signal;HPM_P1;HPM_P2
2022/06/02 00:01:28;;;;;;;5.22;3.40;;;8.10;99.90;;;;;;5034190;28;20128;-46
2022/06/02 00:05:00;;;;;;;4.18;3.78;;;8.00;99.90;;;;;;5058952;28;20044;-48
2022/06/02 00:08:28;;;;;;;4.38;3.65;;;7.90;99.90;;;;;;5048380;28;20049;-47
2022/06/02 00:11:46;;;;;;;;;;;7.80;99.90;;;;;;5054863;28;20062;-46
2022/06/02 00:15:09;;;;;;;6.20;3.60;;;7.80;99.90;;;;;;5041097;28;20015;-47
2022/06/02 00:17:35;;;;;;;6.95;3.70;;;7.80;99.90;;;;;;5044078;28;20051;-46
2022/06/02 00:20:13;;;;;;;4.70;4.10;;;7.80;99.90;;;;;;5066189;28;20036;-49
2022/06/02 00:23:14;;;;;;;4.82;4.15;;;7.80;99.90;;;;;;5026432;28;20742;-46
2022/06/02 00:25:57;;;;;;;3.90;3.55;;;7.90;99.90;;;;;;5058024;28;20131;-49
2022/06/02 00:28:58;;;;;;;4.13;3.58;;;8.00;99.90;;;;;;5038887;28;20551;-48
2022/06/02 00:31:30;;;;;;;5.43;4.07;;;8.20;99.90;;;;;;5039026;28;20776;-46
2022/06/02 00:34:11;;;;;;;4.15;3.67;;;8.30;99.90;;;;;;5049655;28;20400;-51
2022/06/02 00:36:43;;;;;;;4.68;3.15;;;8.40;99.90;;;;;;5029152;28;20042;-46
2022/06/02 00:39:09;;;;;;;4.50;3.50;;;8.60;99.90;;;;;;5028759;28;20497;-46
2022/06/02 00:42:02;;;;;;;4.43;3.83;;;8.70;99.90;;;;;;5061018;28;20033;-47
2022/06/02 00:44:32;;;;;;;4.07;3.58;;;8.80;99.90;;;;;;5046642;28;20029;-50
2022/06/02 00:47:04;;;;;;;4.32;3.92;;;8.90;99.90;;;;;;5072033;28;20028;-47
2022/06/02 00:49:35;;;;;;;3.83;3.45;;;9.00;99.90;;;;;;5050105;28;20039;-48
2022/06/02 00:52:13;;;;;;;6.30;4.53;;;9.10;99.90;;;;;;5031283;28;20187;-46
2022/06/02 00:57:51;;;;;;;5.95;4.60;;;9.20;99.90;;;;;;5031394;28;20072;-46
2022/06/02 01:00:59;;;;;;;4.00;3.60;;;9.30;99.90;;;;;;5056013;28;20070;-47
2022/06/02 01:04:25;;;;;;;5.93;5.03;;;9.40;99.90;;;;;;5067405;28;20040;-46
2022/06/02 01:07:55;;;;;;;6.20;5.03;;;9.50;99.90;;;;;;5062519;28;20667;-47
2022/06/02 01:11:29;;;;;;;6.53;5.55;;;9.60;99.90;;;;;;5057634;28;20036;-49
2022/06/02 01:14:23;;;;;;;5.75;4.35;;;9.70;99.90;;;;;;5053530;28;20036;-49
2022/06/02 01:17:48;;;;;;;4.68;3.33;;;9.70;99.90;;;;;;5031624;28;20405;-49
2022/06/02 01:20:36;;;;;;;4.90;3.60;;;9.80;99.90;;;;;;5064274;28;20047;-46
2022/06/02 01:24:02;;;;;;;4.68;4.07;;;9.80;99.90;;;;;;5043593;28;20093;-47
2022/06/02 01:27:28;;;;;;;5.05;4.55;;;9.90;99.90;;;;;;5031204;28;20045;-46
2022/06/02 01:30:14;;;;;;;3.75;3.35;;;9.90;99.90;;;;;;5060069;28;20032;-48
2022/06/02 01:33:05;;;;;;;7.10;4.65;;;9.90;99.90;;;;;;5037371;28;20043;-46
2022/06/02 01:36:32;;;;;;;5.63;3.92;;;9.90;99.90;;;;;;5056450;28;20063;-47
2022/06/02 01:39:20;;;;;;;3.97;3.67;;;9.70;99.90;;;;;;5058874;28;20524;-46
2022/06/02 01:42:21;;;;;;;3.83;3.53;;;9.60;99.90;;;;;;5031114;28;20068;-47
2022/06/02 01:45:10;;;;;;;5.55;3.63;;;9.50;99.90;;;;;;5031044;28;20132;-48
2022/06/02 01:48:18;;;;;;;4.32;3.72;;;9.40;99.90;;;;;;5034926;28;20044;-46
2022/06/02 01:51:59;;;;;;;3.75;3.35;;;9.50;99.90;;;;;;5030930;28;20042;-46
2022/06/02 01:55:26;;;;;;;4.43;3.65;;;9.40;99.90;;;;;;5065957;28;20037;-46
2022/06/02 01:58:33;;;;;;;5.00;3.67;;;9.30;99.90;;;;;;5057465;28;20140;-46
2022/06/02 02:01:41;;;;;;;4.73;4.00;;;9.20;99.90;;;;;;5023476;28;20750;-46
2022/06/02 02:05:16;;;;;;;5.13;4.63;;;9.00;99.90;;;;;;5060627;28;20279;-47
2022/06/02 02:08:45;;;;;;;4.60;3.55;;;8.70;99.90;;;;;;5057877;28;20496;-46
2022/06/02 02:12:13;;;;;;;4.35;3.63;;;8.60;99.90;;;;;;5051762;28;20507;-47
2022/06/02 02:15:40;;;;;;;5.85;4.80;;;8.50;99.90;;;;;;5064854;28;20032;-48
2022/06/02 02:19:10;;;;;;;5.57;4.13;;;8.50;99.90;;;;;;5049545;28;20045;-46
2022/06/02 02:22:31;;;;;;;5.10;4.05;;;8.50;99.90;;;;;;5059054;28;20512;-47
2022/06/02 02:26:11;;;;;;;6.72;4.60;;;8.40;99.90;;;;;;5053787;28;20041;-46
2022/06/02 02:29:15;;;;;;;4.13;3.17;;;8.30;99.90;;;;;;5052196;28;20065;-47
2022/06/02 02:32:27;;;;;;;5.70;4.65;;;8.10;99.90;;;;;;5030185;28;20449;-46
2022/06/02 02:35:38;;;;;;;5.30;4.00;;;8.10;99.90;;;;;;5053475;28;20039;-48
2022/06/02 02:39:05;;;;;;;4.30;3.00;;;8.20;99.90;;;;;;5045289;28;20051;-47
2022/06/02 02:42:51;;;;;;;7.60;4.40;;;8.40;99.90;;;;;;5029914;28;20079;-47
2022/06/02 02:46:15;;;;;;;3.67;2.90;;;8.40;99.90;;;;;;5060407;28;20140;-49
2022/06/02 02:49:40;;;;;;;4.53;3.63;;;8.40;99.90;;;;;;5048382;28;20099;-46
2022/06/02 02:53:05;;;;;;;4.18;3.55;;;8.30;99.90;;;;;;5058413;28;20033;-48
2022/06/02 02:56:30;;;;;;;4.18;3.60;;;8.30;99.90;;;;;;5055076;28;20182;-47
2022/06/02 02:59:54;;;;;;;5.55;4.25;;;8.40;99.90;;;;;;5056453;28;20413;-49
2022/06/02 03:03:44;;;;;;;4.38;3.47;;;8.60;99.90;;;;;;5030361;28;20045;-48
2022/06/02 03:07:12;;;;;;;4.40;3.33;;;8.70;99.90;;;;;;5027359;28;20033;-50
2022/06/02 03:10:56;;;;;;;5.35;3.70;;;8.80;99.90;;;;;;5036238;28;20651;-50
2022/06/02 03:14:21;;;;;;;4.20;3.70;;;8.90;99.90;;;;;;5053728;28;20041;-52
2022/06/02 03:16:56;;;;;;;5.72;4.18;;;8.90;99.90;;;;;;5033286;28;20087;-52
2022/06/02 03:19:28;;;;;;;4.57;3.78;;;8.90;99.90;;;;;;5067179;28;20037;-54
2022/06/02 03:22:30;;;;;;;5.60;3.33;;;8.90;99.90;;;;;;5029257;28;20486;-54
2022/06/02 03:25:09;;;;;;;5.18;3.75;;;8.80;99.90;;;;;;5032660;28;20025;-50
2022/06/02 03:27:55;;;;;;;4.85;4.10;;;8.80;99.90;;;;;;5066942;28;20032;-52
2022/06/02 03:30:26;;;;;;;4.65;3.60;;;8.70;99.90;;;;;;5069195;28;20029;-50
2022/06/02 03:33:30;;;;;;;6.00;4.18;;;8.70;99.90;;;;;;5032983;28;20056;-54
2022/06/02 03:36:17;;;;;;;6.20;3.92;;;8.90;99.90;;;;;;5069011;28;20028;-51
2022/06/02 03:39:05;;;;;;;4.70;4.22;;;9.10;99.90;;;;;;5047273;28;20039;-55
2022/06/02 03:42:06;;;;;;;6.28;3.70;;;10.30;99.90;;;;;;5048660;28;20159;-53
2022/06/02 03:44:44;;;;;;;3.15;2.55;;;11.50;99.90;;;;;;5044035;28;20035;-51
2022/06/02 03:47:39;;;;;;;2.60;2.40;;;12.20;99.90;;;;;;5028832;28;20025;-49
2022/06/02 03:50:28;;;;;;;3.35;2.78;;;13.00;99.90;;;;;;5028931;28;20032;-54
2022/06/02 03:53:22;;;;;;;2.70;2.45;;;13.80;99.90;;;;;;5033588;28;20025;-50
2022/06/02 03:56:10;;;;;;;2.47;2.28;;;14.60;99.90;;;;;;5068892;28;20086;-50
2022/06/02 03:59:08;;;;;;;3.40;2.67;;;15.40;98.10;;;;;;5045277;28;20470;-51
2022/06/02 04:02:19;;;;;;;4.20;2.70;;;14.80;96.30;;;;;;5018050;28;20106;-50
2022/06/02 04:05:08;;;;;;;2.92;2.42;;;15.80;93.60;;;;;;5057400;28;20123;-52
2022/06/02 04:08:39;;;;;;;3.78;1.88;;;16.90;89.80;;;;;;5033525;28;20032;-54
2022/06/02 04:15:23;;;;;;;1.38;1.27;;;16.70;72.00;;;;;;5044385;28;20035;-54
2022/06/02 04:18:34;;;;;;;3.40;2.00;;;16.60;80.60;;;;;;5034018;28;20081;-51
2022/06/02 04:22:08;;;;;;;2.42;1.80;;;18.10;62.60;;;;;;5065802;28;20106;-51
2022/06/02 04:25:49;;;;;;;1.60;1.50;;;19.20;62.00;;;;;;5048920;28;20029;-53
2022/06/02 04:29:14;;;;;;;1.50;1.40;;;20.00;49.10;;;;;;5065509;28;20048;-49
2022/06/02 04:32:19;;;;;;;3.33;1.55;;;18.70;61.70;;;;;;5064682;28;20510;-54
2022/06/02 04:35:24;;;;;;;2.28;1.88;;;17.70;63.80;;;;;;5052045;28;20037;-54
2022/06/02 04:38:32;;;;;;;1.50;1.40;;;16.90;69.70;;;;;;5032517;28;20136;-54
2022/06/02 04:41:40;;;;;;;2.03;1.85;;;16.20;72.60;;;;;;5032627;28;20671;-51
2022/06/02 04:44:56;;;;;;;1.88;1.75;;;15.60;85.50;;;;;;5041406;28;20163;-51
2022/06/02 04:48:14;;;;;;;3.42;2.10;;;15.30;88.40;;;;;;5053628;28;20032;-50
2022/06/02 04:51:50;;;;;;;2.45;1.92;;;15.10;85.80;;;;;;5047736;28;20044;-52
2022/06/02 04:55:40;;;;;;;2.20;2.00;;;14.80;85.80;;;;;;5049109;28;20061;-52
2022/06/02 04:58:57;;;;;;;;;;;14.60;87.80;;;;;;5064494;28;20036;-53
2022/06/02 05:02:26;;;;;;;1.67;1.50;;;14.60;83.40;;;;;;5064749;28;19909;-53
2022/06/02 05:05:32;;;;;;;;;;;14.60;88.90;;;;;;5050646;28;20504;-53
2022/06/02 05:08:41;;;;;;;2.53;1.67;;;14.90;84.20;;;;;;5054969;28;19908;-53
2022/06/02 05:11:20;;;;;;;2.95;2.30;;;15.50;83.60;;;;;;5032007;28;20087;-53
2022/06/02 05:14:20;;;;;;;2.40;2.15;;;19.60;60.20;;;;;;5031002;28;20030;-54
2022/06/02 05:17:06;;;;;;;2.15;1.98;;;22.80;35.40;;;;;;5071852;28;20601;-51
2022/06/02 05:19:46;;;;;;;1.97;1.77;;;24.20;29.30;;;;;;5043668;28;20080;-50
2022/06/02 05:22:24;;;;;;;3.22;2.92;;;25.60;27.90;;;;;;5031806;28;20277;-52
2022/06/02 05:25:25;;;;;;;3.15;2.22;;;26.90;20.00;;;;;;5047152;28;20033;-49
2022/06/02 05:28:25;;;;;;;2.70;1.98;;;27.70;18.60;;;;;;5051506;28;20033;-51
2022/06/02 05:31:31;;;;;;;2.42;2.05;;;28.70;15.00;;;;;;5047153;28;20060;-51
2022/06/02 05:34:19;;;;;;;5.07;2.47;;;30.00;14.60;;;;;;5033502;28;20133;-54
2022/06/02 05:37:02;;;;;;;2.75;2.35;;;29.70;11.00;;;;;;5071220;28;20016;-54
2022/06/02 05:39:49;;;;;;;2.53;2.33;;;28.40;12.00;;;;;;5042110;28;20618;-51
2022/06/02 05:42:23;;;;;;;;;;;29.30;12.60;;;;;;5071576;28;20020;-49
2022/06/02 05:45:06;;;;;;;3.30;2.30;;;30.20;7.00;;;;;;5047718;28;19908;-55
2022/06/02 05:48:00;;;;;;;2.08;1.90;;;31.40;13.40;;;;;;5031131;28;20167;-53
2022/06/02 05:51:04;;;;;;;3.80;2.58;;;32.30;5.60;;;;;;5043613;28;20033;-50
2022/06/02 05:55:00;;;;;;;2.60;2.35;;;32.80;5.00;;;;;;5057694;28;20044;-51
2022/06/02 05:58:23;;;;;;;2.40;2.10;;;33.70;6.90;;;;;;5030745;28;20045;-52
2022/06/02 06:01:28;;;;;;;2.53;2.33;;;34.10;2.10;;;;;;5023268;28;20045;-53
2022/06/02 06:04:48;;;;;;;2.75;2.47;;;34.40;2.20;;;;;;5061165;28;20032;-50
2022/06/02 06:08:08;;;;;;;2.83;2.20;;;35.10;1.40;;;;;;5055971;28;20048;-48
2022/06/02 06:11:43;;;;;;;2.55;2.13;;;35.30;1.00;;;;;;5064946;28;20040;-49
2022/06/02 06:15:00;;;;;;;2.38;2.17;;;35.10;1.00;;;;;;5060876;28;20033;-51
2022/06/02 06:18:25;;;;;;;1.95;1.80;;;35.60;4.70;;;;;;5048636;28;20045;-53
2022/06/02 06:21:43;;;;;;;3.10;2.33;;;35.70;1.00;;;;;;5035909;28;20033;-53
2022/06/02 06:24:57;;;;;;;2.28;2.00;;;36.10;1.00;;;;;;5058943;28;20044;-54
2022/06/02 06:28:28;;;;;;;2.20;2.00;;;36.20;1.00;;;;;;5063585;28;20086;-56
2022/06/02 06:31:55;;;;;;;2.55;1.75;;;36.00;1.00;;;;;;5066359;28;20064;-54
2022/06/02 06:35:04;;;;;;;1.58;1.48;;;36.30;1.00;;;;;;5057806;28;20203;-52
2022/06/02 06:38:32;;;;;;;2.10;1.95;;;36.50;1.00;;;;;;5058432;28;20105;-55
2022/06/02 06:42:10;;;;;;;2.00;1.90;;;36.50;1.00;;;;;;5064037;28;20551;-56
2022/06/02 06:45:15;;;;;;;2.15;2.03;;;36.80;1.00;;;;;;5069496;28;20044;-55
2022/06/02 06:48:40;;;;;;;2.83;2.00;;;37.90;1.00;;;;;;5029770;28;20065;-56
2022/06/02 06:52:06;;;;;;;2.28;2.08;;;37.20;1.00;;;;;;5040557;28;20033;-55
2022/06/02 06:55:35;;;;;;;2.63;1.80;;;37.90;1.00;;;;;;5051075;28;20193;-56
2022/06/02 06:58:52;;;;;;;2.75;2.00;;;37.30;1.00;;;;;;5057637;28;20432;-55
2022/06/02 07:01:43;;;;;;;1.80;1.70;;;37.90;1.00;;;;;;5043696;28;20040;-46
2022/06/02 07:05:06;;;;;;;2.80;1.98;;;37.80;1.00;;;;;;5029380;28;20571;-47
2022/06/02 07:08:39;;;;;;;2.00;1.80;;;36.50;1.00;;;;;;5029324;28;20033;-45
2022/06/02 07:15:41;;;;;;;2.08;1.90;;;34.10;1.00;;;;;;5051953;28;20404;-51
2022/06/02 07:19:05;;;;;;;2.30;1.92;;;35.50;1.00;;;;;;5054226;28;20049;-50
2022/06/02 07:22:29;;;;;;;2.35;2.17;;;36.70;1.00;;;;;;5041922;28;20115;-46
2022/06/02 07:26:06;;;;;;;2.50;2.30;;;36.30;1.00;;;;;;5051009;28;20032;-46
2022/06/02 07:29:12;;;;;;;1.95;1.73;;;35.70;1.00;;;;;;5029041;28;20037;-48
2022/06/02 07:32:43;;;;;;;3.30;2.63;;;34.40;1.00;;;;;;5056689;28;20392;-45
2022/06/02 07:35:46;;;;;;;2.95;2.67;;;31.20;1.00;;;;;;5055410;28;20029;-49
2022/06/02 07:38:54;;;;;;;2.67;2.45;;;28.90;1.40;;;;;;5049083;28;20459;-46
2022/06/02 07:42:25;;;;;;;2.17;2.05;;;28.40;2.10;;;;;;5051366;28;20508;-46
2022/06/02 07:45:32;;;;;;;2.67;2.05;;;28.00;2.70;;;;;;5054550;28;20060;-48
2022/06/02 07:48:22;;;;;;;;;;;26.70;4.40;;;;;;5068864;28;20203;-46
2022/06/02 07:52:00;;;;;;;3.25;2.78;;;26.10;5.90;;;;;;5042050;28;19954;-45
2022/06/02 07:55:27;;;;;;;4.13;2.50;;;27.40;5.40;;;;;;5062406;28;20190;-51
2022/06/02 07:59:11;;;;;;;2.33;2.13;;;31.60;1.80;;;;;;5056852;28;20129;-50
2022/06/02 08:02:50;;;;;;;2.58;2.03;;;34.60;1.00;;;;;;5048138;28;20280;-46
2022/06/02 08:06:17;;;;;;;3.15;1.90;;;33.00;1.00;;;;;;5055325;28;20044;-46
2022/06/02 08:09:40;;;;;;;4.15;2.33;;;32.30;1.00;;;;;;5049926;28;20039;-48
2022/06/02 08:12:29;;;;;;;2.45;2.05;;;32.10;1.00;;;;;;5045060;28;20051;-48
2022/06/02 08:16:09;;;;;;;2.47;1.70;;;29.70;1.00;;;;;;5027557;28;20116;-46
2022/06/02 08:19:23;;;;;;;3.55;2.13;;;29.90;1.00;;;;;;5028146;28;20053;-46
2022/06/02 08:22:46;;;;;;;2.55;2.15;;;28.40;1.60;;;;;;5058357;28;20064;-46
2022/06/02 08:25:57;;;;;;;2.95;1.63;;;26.60;3.60;;;;;;5059420;28;20037;-46
2022/06/02 08:29:38;;;;;;;3.30;2.20;;;25.10;5.80;;;;;;5048482;28;20037;-49
2022/06/02 08:33:27;;;;;;;3.20;2.22;;;27.00;5.50;;;;;;5063012;28;20403;-47
2022/06/02 08:36:53;;;;;;;2.20;1.75;;;30.00;1.30;;;;;;5046940;28;20040;-45
2022/06/02 08:40:03;;;;;;;2.10;1.90;;;31.20;1.00;;;;;;5027919;28;20037;-47
2022/06/02 08:43:32;;;;;;;4.25;2.30;;;28.90;1.00;;;;;;5056903;28;20044;-46
2022/06/02 08:47:07;;;;;;;2.05;1.83;;;26.80;2.80;;;;;;5041978;28;20040;-45
2022/06/02 08:50:21;;;;;;;2.10;1.73;;;25.80;3.80;;;;;;5056617;28;20028;-46
2022/06/02 08:53:45;;;;;;;2.05;1.90;;;25.10;5.40;;;;;;5056680;28;20043;-46
2022/06/02 08:57:19;;;;;;;3.20;1.92;;;26.60;4.80;;;;;;5046370;28;20067;-48
2022/06/02 09:00:33;;;;;;;1.80;1.27;;;30.00;1.30;;;;;;5051029;28;20044;-47
2022/06/02 09:04:13;;;;;;;3.72;1.67;;;29.70;1.00;;;;;;5069776;28;20439;-48
2022/06/02 09:07:34;;;;;;;2.10;1.58;;;31.30;1.00;;;;;;5059480;28;20044;-47
2022/06/02 09:10:54;;;;;;;2.20;1.48;;;33.00;1.00;;;;;;5058003;28;20195;-47
2022/06/02 09:14:03;;;;;;;2.03;1.30;;;30.50;1.00;;;;;;5056586;28;20045;-48
2022/06/02 09:17:44;;;;;;;1.55;1.20;;;28.80;1.10;;;;;;5056329;28;20037;-47
2022/06/02 09:21:26;;;;;;;1.25;1.00;;;31.20;1.00;;;;;;5057845;28;20044;-47
2022/06/02 09:25:11;;;;;;;1.63;1.15;;;33.20;1.00;;;;;;5054432;28;20475;-46
2022/06/02 09:28:24;;;;;;;3.05;0.95;;;34.20;1.00;;;;;;5060734;28;20492;-46
2022/06/02 09:31:31;;;;;;;2.45;0.98;;;32.50;1.00;;;;;;5050221;28;20384;-51
2022/06/02 09:34:51;;;;;;;2.13;1.08;;;31.00;1.00;;;;;;5030882;28;20033;-49
2022/06/02 09:38:09;;;;;;;1.02;0.98;;;32.10;1.00;;;;;;5052697;28;20408;-45
2022/06/02 09:41:26;;;;;;;0.68;0.47;;;32.90;1.00;;;;;;5044138;28;20024;-48
2022/06/02 09:45:06;;;;;;;1.40;0.80;;;33.60;1.00;;;;;;5052790;28;20052;-47
2022/06/02 09:48:20;;;;;;;1.25;0.80;;;33.20;1.00;;;;;;5059155;28;20040;-50
2022/06/02 09:51:44;;;;;;;1.10;0.70;;;32.90;1.00;;;;;;5044045;28;20555;-45
2022/06/02 09:54:48;;;;;;;0.85;0.75;;;32.70;1.00;;;;;;5059275;28;20146;-46
2022/06/02 09:58:19;;;;;;;1.02;0.80;;;32.40;1.00;;;;;;5062568;28;20055;-47
2022/06/02 10:01:29;;;;;;;1.35;0.80;;;30.80;1.00;;;;;;5042537;28;20112;-46
2022/06/02 10:05:22;;;;;;;2.85;1.10;;;29.70;1.00;;;;;;5059136;28;20204;-46
2022/06/02 10:08:55;;;;;;;2.17;0.77;;;28.20;1.00;;;;;;5067760;28;20560;-46
2022/06/02 10:12:54;;;;;;;2.15;0.90;;;26.90;1.00;;;;;;5044745;28;20099;-47
2022/06/02 10:15:18;;;;;;;0.90;0.85;;;25.60;1.00;;;;;;5030188;28;20033;-47
2022/06/02 10:18:23;;;;;;;2.45;0.95;;;24.60;1.30;;;;;;5030038;28;20049;-46
2022/06/02 10:21:43;;;;;;;1.88;0.80;;;24.10;2.90;;;;;;5044151;28;20036;-45
2022/06/02 10:24:50;;;;;;;0.93;0.75;;;23.80;3.80;;;;;;5029922;28;20049;-46
2022/06/02 10:27:44;;;;;;;0.65;0.65;;;23.50;3.70;;;;;;5058539;28;20072;-45
2022/06/02 10:31:21;;;;;;;0.60;0.60;;;23.30;3.30;;;;;;5054139;28;20633;-45
2022/06/02 10:34:44;;;;;;;1.67;0.90;;;23.00;4.00;;;;;;5069189;28;20130;-48
2022/06/02 10:37:35;;;;;;;1.00;0.80;;;22.90;4.20;;;;;;5047033;28;20174;-47
2022/06/02 10:40:53;;;;;;;0.85;0.80;;;23.00;3.80;;;;;;5030766;28;20478;-47
2022/06/02 10:43:47;;;;;;;;;;;22.80;5.10;;;;;;5030133;28;20192;-47
2022/06/02 10:47:11;;;;;;;0.68;0.68;;;22.80;5.80;;;;;;5050446;28;19915;-45
2022/06/02 10:49:57;;;;;;;1.25;0.90;;;22.90;5.20;;;;;;5058295;28;20029;-45
2022/06/02 10:53:12;;;;;;;3.80;1.43;;;22.80;4.60;;;;;;5029509;28;20088;-46
2022/06/02 10:56:39;;;;;;;1.55;1.10;;;22.60;5.90;;;;;;5043174;28;20350;-48
2022/06/02 11:00:02;;;;;;;0.70;0.70;;;22.50;6.50;;;;;;5050710;28;20261;-47
2022/06/02 11:03:13;;;;;;;1.58;0.80;;;22.70;5.10;;;;;;5063499;28;20040;-48
2022/06/02 11:06:27;;;;;;;1.75;0.75;;;22.70;5.00;;;;;;5049501;28;20052;-45
2022/06/02 11:09:44;;;;;;;1.10;0.85;;;22.60;5.00;;;;;;5057996;28;20032;-44
2022/06/02 11:12:46;;;;;;;1.65;0.90;;;22.40;5.50;;;;;;5043820;28;20033;-45
2022/06/02 11:15:24;;;;;;;4.03;0.63;;;22.60;5.10;;;;;;5027867;28;20033;-44
2022/06/02 11:18:03;;;;;;;3.60;0.80;;;22.40;4.20;;;;;;5068919;28;20028;-46
2022/06/02 11:21:10;;;;;;;1.85;0.80;;;22.30;4.70;;;;;;5032234;28;20025;-45
2022/06/02 11:23:48;;;;;;;1.98;1.17;;;22.10;6.00;;;;;;5049793;28;20037;-45
2022/06/02 11:26:32;;;;;;;1.27;0.80;;;22.10;5.60;;;;;;5044840;28;20048;-46
2022/06/02 11:29:37;;;;;;;1.98;0.80;;;22.10;5.40;;;;;;5049437;28;20029;-44
2022/06/02 11:32:56;;;;;;;1.42;0.80;;;22.10;5.50;;;;;;5042867;28;20037;-45
2022/06/02 11:35:45;;;;;;;2.00;1.10;;;22.10;5.70;;;;;;5027632;28;20464;-46
2022/06/02 11:38:38;;;;;;;1.33;0.77;;;22.30;5.70;;;;;;5066201;28;20133;-46
2022/06/02 11:41:33;;;;;;;3.10;0.93;;;22.40;5.60;;;;;;5041445;28;20040;-45
2022/06/02 11:44:12;;;;;;;6.47;0.95;;;22.30;5.80;;;;;;5028989;28;20038;-44
2022/06/02 11:47:15;;;;;;;2.75;0.88;;;22.40;6.00;;;;;;5054787;28;20044;-45
2022/06/02 11:50:09;;;;;;;0.93;0.70;;;22.70;5.80;;;;;;5067870;28;20031;-48
2022/06/02 11:52:53;;;;;;;1.85;1.00;;;22.70;6.10;;;;;;5048184;28;20028;-44
2022/06/02 11:55:27;;;;;;;4.13;0.70;;;22.40;5.90;;;;;;5029131;28;20029;-44
2022/06/02 11:58:11;;;;;;;2.55;0.80;;;22.20;5.90;;;;;;5068538;28;20094;-45
2022/06/02 12:00:41;;;;;;;2.75;1.10;;;22.10;6.10;;;;;;5040528;28;20083;-45
2022/06/02 12:03:10;;;;;;;2.78;1.20;;;22.20;6.00;;;;;;5067587;28;20495;-46
2022/06/02 12:06:22;;;;;;;1.10;0.88;;;22.20;6.10;;;;;;5050166;28;20029;-45
2022/06/02 12:09:16;;;;;;;1.13;0.70;;;22.20;5.40;;;;;;5049041;28;20033;-44
2022/06/02 12:12:03;;;;;;;1.38;0.85;;;22.30;6.10;;;;;;5039324;28;20037;-44
2022/06/02 12:14:52;;;;;;;2.25;0.77;;;22.30;5.30;;;;;;5028434;28;20030;-45
2022/06/02 12:17:27;;;;;;;0.73;0.70;;;22.40;6.10;;;;;;5044129;28;20060;-45
2022/06/02 12:20:24;;;;;;;1.23;0.77;;;22.40;5.50;;;;;;5028360;28;20033;-44
2022/06/02 12:22:52;;;;;;;;;;;22.60;5.10;;;;;;5032637;28;20139;-46
2022/06/02 12:25:42;;;;;;;2.33;0.70;;;22.50;5.20;;;;;;5063585;28;19912;-45
2022/06/02 12:28:20;;;;;;;3.58;0.70;;;22.40;5.20;;;;;;5043504;28;20043;-45
2022/06/02 12:31:12;;;;;;;0.68;0.68;;;22.30;5.30;;;;;;5029691;28;20370;-45
2022/06/02 12:34:16;;;;;;;1.60;0.65;;;22.10;5.80;;;;;;5045132;28;20477;-44
2022/06/02 12:36:44;;;;;;;2.72;0.73;;;21.90;6.80;;;;;;5031287;28;20042;-45
2022/06/02 12:39:38;;;;;;;1.02;0.70;;;22.00;6.20;;;;;;5031134;28;20037;-44
2022/06/02 12:42:28;;;;;;;1.17;0.68;;;22.10;5.80;;;;;;5034961;28;20536;-44
2022/06/02 12:45:41;;;;;;;0.98;0.80;;;22.00;5.60;;;;;;5071154;28;20024;-44
2022/06/02 12:48:21;;;;;;;0.70;0.70;;;21.80;5.10;;;;;;5051875;28;20270;-46
2022/06/02 12:51:06;;;;;;;1.17;0.70;;;21.90;5.20;;;;;;5031069;28;20041;-44
2022/06/02 12:54:04;;;;;;;0.88;0.68;;;21.90;5.10;;;;;;5043993;28;20096;-44
2022/06/02 12:56:39;;;;;;;1.70;0.55;;;21.80;5.30;;;;;;5030909;28;20021;-44
2022/06/02 12:59:29;;;;;;;0.70;0.70;;;21.70;5.30;;;;;;5048343;28;20045;-44
2022/06/02 13:02:03;;;;;;;2.38;0.90;;;21.80;5.60;;;;;;5024551;28;20480;-45
2022/06/02 13:05:31;;;;;;;2.05;0.70;;;21.70;5.50;;;;;;5070690;28;20335;-45
2022/06/02 13:08:34;;;;;;;0.90;0.80;;;21.60;6.30;;;;;;5048619;28;20097;-44
2022/06/02 13:11:08;;;;;;;1.13;0.75;;;21.50;6.20;;;;;;5051391;28;20033;-46
2022/06/02 13:13:58;;;;;;;1.23;0.70;;;21.40;6.30;;;;;;5043874;28;20276;-46
2022/06/02 13:16:38;;;;;;;1.00;0.90;;;21.50;6.80;;;;;;5030467;28;20032;-45
2022/06/02 13:19:25;;;;;;;1.00;0.82;;;21.60;6.00;;;;;;5045880;28;20045;-48
2022/06/02 13:22:17;;;;;;;0.70;0.40;;;21.70;5.70;;;;;;5050787;28;20068;-45
2022/06/02 13:24:50;;;;;;;1.77;0.77;;;21.80;5.30;;;;;;5035882;28;20047;-45
2022/06/02 13:27:45;;;;;;;1.88;0.60;;;21.60;5.40;;;;;;5050619;28;20404;-44
2022/06/02 13:30:46;;;;;;;1.60;0.60;;;21.30;5.60;;;;;;5039941;28;20167;-44
2022/06/02 13:33:17;;;;;;;1.33;0.80;;;21.40;5.10;;;;;;5030583;28;20029;-47
2022/06/02 13:36:08;;;;;;;1.67;0.50;;;21.60;5.60;;;;;;5052344;28;20515;-45
2022/06/02 13:38:55;;;;;;;1.23;0.65;;;21.80;4.80;;;;;;5057855;28;20040;-46
2022/06/02 13:41:51;;;;;;;0.93;0.70;;;21.80;4.40;;;;;;5030480;28;20083;-47
2022/06/02 13:44:30;;;;;;;1.65;0.80;;;21.80;4.00;;;;;;5034282;28;20025;-44
2022/06/02 13:47:04;;;;;;;0.95;0.60;;;21.70;4.40;;;;;;5050179;28;20025;-49
2022/06/02 13:49:51;;;;;;;1.65;0.63;;;21.70;4.90;;;;;;5033667;28;20039;-50
2022/06/02 13:52:51;;;;;;;0.43;0.40;;;21.80;5.30;;;;;;5069240;28;20052;-50
2022/06/02 13:59:01;;;;;;;5.85;1.63;;;21.90;4.30;;;;;;5030109;28;20052;-48
2022/06/02 14:01:49;;;;;;;0.85;0.80;;;21.90;3.90;;;;;;5026515;28;20025;-50
2022/06/02 14:04:34;;;;;;;0.60;0.60;;;22.00;4.10;;;;;;5031754;28;20645;-50
2022/06/02 14:07:24;;;;;;;1.50;0.80;;;21.90;3.80;;;;;;5050125;28;20021;-50
2022/06/02 14:10:17;;;;;;;1.17;0.80;;;21.70;4.10;;;;;;5036261;28;20021;-47
2022/06/02 14:12:57;;;;;;;5.30;0.70;;;21.70;4.50;;;;;;5029433;28;20037;-50
2022/06/02 14:16:01;;;;;;;1.45;0.63;;;21.60;4.40;;;;;;5049795;28;20029;-53
2022/06/02 14:18:50;;;;;;;3.80;0.70;;;21.40;4.40;;;;;;5035584;28;20148;-51
2022/06/02 14:21:39;;;;;;;0.73;0.73;;;21.30;4.80;;;;;;5037803;28;20374;-52
2022/06/02 14:24:10;;;;;;;2.63;1.02;;;21.40;5.30;;;;;;5029754;28;20367;-47
2022/06/02 14:26:58;;;;;;;1.40;0.90;;;21.40;4.80;;;;;;5040158;28;20053;-46
2022/06/02 14:29:48;;;;;;;1.65;0.80;;;21.30;4.90;;;;;;5047316;28;20381;-51
2022/06/02 14:32:52;;;;;;;2.28;0.65;;;21.00;4.60;;;;;;5049969;28;20029;-51
2022/06/02 14:35:48;;;;;;;0.68;0.68;;;20.90;5.40;;;;;;5030472;28;20045;-52
2022/06/02 14:38:16;;;;;;;0.90;0.73;;;20.70;5.70;;;;;;5050483;28;20040;-47
2022/06/02 14:40:54;;;;;;;0.70;0.63;;;20.60;5.80;;;;;;5062427;28;20586;-52
2022/06/02 14:43:33;;;;;;;1.35;0.95;;;20.60;6.30;;;;;;5050389;28;20033;-50
2022/06/02 14:46:08;;;;;;;0.70;0.68;;;20.60;6.40;;;;;;5036112;28;20083;-46
2022/06/02 14:48:53;;;;;;;1.17;0.73;;;20.60;6.30;;;;;;5030267;28;20087;-46
2022/06/02 14:51:29;;;;;;;1.35;0.80;;;20.70;6.60;;;;;;5038803;28;20025;-52
2022/06/02 14:54:32;;;;;;;0.60;0.60;;;20.70;6.50;;;;;;5041053;28;20025;-50
2022/06/02 14:57:22;;;;;;;0.70;0.57;;;20.70;6.90;;;;;;5070414;28;20028;-45
2022/06/02 15:00:06;;;;;;;2.92;0.70;;;20.80;6.70;;;;;;5035715;28;20492;-50
2022/06/02 15:03:02;;;;;;;1.02;0.60;;;20.80;6.80;;;;;;5030024;28;20045;-48
2022/06/02 15:05:55;;;;;;;1.67;0.52;;;20.70;7.90;;;;;;5054110;28;20033;-51
2022/06/02 15:08:39;;;;;;;1.15;0.88;;;20.60;7.10;;;;;;5029874;28;20441;-52
2022/06/02 15:11:34;;;;;;;0.98;0.80;;;20.30;7.40;;;;;;5046042;28;20115;-48
2022/06/02 15:14:33;;;;;;;2.25;0.60;;;20.30;7.80;;;;;;5040593;28;20087;-52
2022/06/02 15:17:24;;;;;;;1.08;0.60;;;20.20;8.10;;;;;;5044400;28;20452;-51
2022/06/02 15:20:23;;;;;;;0.95;0.52;;;20.30;8.30;;;;;;5047386;28;20411;-54
2022/06/02 15:23:03;;;;;;;0.60;0.60;;;20.50;8.40;;;;;;5067231;28;20044;-50
2022/06/02 15:26:12;;;;;;;1.48;0.60;;;20.60;8.10;;;;;;5065067;28;20037;-48
2022/06/02 15:29:11;;;;;;;3.15;1.05;;;20.70;8.70;;;;;;5037108;28;20041;-47
2022/06/02 15:32:08;;;;;;;0.85;0.85;;;20.70;8.00;;;;;;5029802;28;20021;-47
2022/06/02 15:35:01;;;;;;;0.50;0.50;;;20.40;8.30;;;;;;5044764;28;20029;-49
2022/06/02 15:38:04;;;;;;;0.70;0.70;;;20.20;8.70;;;;;;5029233;28;20025;-49
2022/06/02 15:41:00;;;;;;;1.65;0.60;;;20.30;9.00;;;;;;5029475;28;20089;-47
2022/06/02 15:43:53;;;;;;;1.35;0.80;;;20.40;9.10;;;;;;5039945;28;20021;-49
2022/06/02 15:46:46;;;;;;;0.80;0.70;;;20.30;8.90;;;;;;5045389;28;20128;-48
2022/06/02 15:49:42;;;;;;;2.08;1.05;;;20.30;9.00;;;;;;5028005;28;20025;-48
2022/06/02 15:52:30;;;;;;;1.33;0.70;;;20.30;8.60;;;;;;5032408;28;20024;-47
2022/06/02 15:55:08;;;;;;;0.63;0.60;;;20.30;8.80;;;;;;5067975;28;20028;-48
2022/06/02 15:57:50;;;;;;;0.50;0.50;;;20.20;8.70;;;;;;5039227;28;20021;-48
2022/06/02 16:00:21;;;;;;;0.75;0.55;;;20.00;9.80;;;;;;5052191;28;20060;-50
2022/06/02 16:02:53;;;;;;;3.10;0.60;;;19.90;9.50;;;;;;5064906;28;20036;-47
2022/06/02 16:05:27;;;;;;;0.95;0.60;;;20.00;9.60;;;;;;5048536;28;20464;-47
2022/06/02 16:08:03;;;;;;;0.70;0.65;;;19.90;9.80;;;;;;5044511;28;20081;-50
2022/06/02 16:14:11;;;;;;;0.60;0.52;;;19.50;10.70;;;;;;5055941;28;20135;-50
2022/06/02 16:16:56;;;;;;;2.10;0.60;;;19.40;11.30;;;;;;5027728;28;20108;-49
2022/06/02 16:19:21;;;;;;;0.95;0.50;;;19.40;11.80;;;;;;5027676;28;20438;-48
2022/06/02 16:22:05;;;;;;;1.20;0.70;;;19.50;11.40;;;;;;5064009;28;20111;-51
2022/06/02 16:25:08;;;;;;;0.77;0.65;;;19.40;11.20;;;;;;5067410;28;20027;-47
2022/06/02 16:28:15;;;;;;;0.70;0.70;;;19.30;12.40;;;;;;5039270;28;20029;-53